Terminal Aerodrome Forecast
Issued by NWS Oklahoma City, OK

Home | Current Version | Previous Version | Text Only | Print | Product List | Glossary On
Versions: 1 2 3 4 5 6 7 8 9 10 11 12 13 14 15 16 17 18 19 20 21 22 23 24 25 26 27
320
FTUS44 KOUN 250520
TAFOUN
TAF
KOUN 250520Z 2506/2606 36014KT P6SM OVC080
     FM250800 36016KT 6SM -SHRA SCT015 OVC050
      TEMPO 2508/2511 3SM -TSRA BR SCT007 OVC015CB
     FM251100 36013KT 5SM -RA OVC007
     FM251600 33015G24KT P6SM BKN035=

USA.gov is the U.S. government's official web portal to all federal, state and local government web resources and services.